Pineville, LA (71359)

12:26 PM CDT on March 29, 2017 (GMT -0500)
Legacy Pointe | | Change Station

Elev 141 ft 31.35 °N, 92.37 °W | Updated 8 seconds ago

Overcast
Overcast
78.1 °F
Feels Like 79 °F
N
9.2
Wind Variable Wind from SSW
Gusts 9.8 mph

Today
High -- | Low -- °F
--% Chance of Precip.
Yesterday
High -- | Low -- °F
Precip. -- in
Pressure 29.91 in
Visibility 10.0 miles
Clouds Few 2700 ft
Mostly Cloudy 3500 ft
Mostly Cloudy 4100 ft
Heat Index 79 °F
Dew Point 58 °F
Humidity 51%
Rainfall 0.00 in
Snow Depth Not available.
7:01 AM 7:27 PM
Waxing Crescent, 4% visible
METAR KAEX 291653Z 14012G19KT 10SM -RA FEW027 BKN035 BKN041 24/19 A2990 RMK AO2 SLP129 P0000 T02440189
Pressure 29.91 in
Visibility 10.0 miles
Clouds Few 2700 ft
Mostly Cloudy 3500 ft
Mostly Cloudy 4100 ft
Heat Index 79 °F
Dew Point 58 °F
Humidity 51%
Rainfall 0.00 in
Snow Depth Not available.
7:01 AM 7:27 PM
Waxing Crescent, 4% visible
METAR KAEX 291653Z 14012G19KT 10SM -RA FEW027 BKN035 BKN041 24/19 A2990 RMK AO2 SLP129 P0000 T02440189

Get Severe Weather Alerts

Thanks for signing up!

Be on the lookout for a verification email in your inbox.

You'll start receiving the daily forecast at 8 AM.

×

10-Day Weather Forecast

Almanac

Astronomy

Mar. 29, 2017 Rise Set
Actual Time
Civil Twilight
Nautical Twilight
Astronomical Twilight
Moon
Length of Visible Light
Length of Day
Tomorrow will be .
, % of the Moon is Illuminated

Today's Extremes

State Highs State Lows

Community

WunderPhotos

Upload Photos

1,962,540 photos uploaded!

WunderBlog® & News

Nearby

Air Quality

  Air Quality AQ Index Pollutant
Not available.

Snow Depth

Station Depth Elevation

Earthquake Activity

City Distance Mag. Time & Date
Minimum magnitude displayed is 2.5.

Earthquake Activity

City Distance Mag. Time & Date
Minimum magnitude displayed is 2.5.

Coastal Water Temperatures

Place Temperature

Stations

Nearby Weather Stations

Station Location Temp. Windchill Dew Point Humidity Wind Precip. Elev Updated Type
                   

Watches & Warnings

There are currently no watches in effect.